createdAt,value
2019-02-11T00:01:25.238Z,3.20
2019-02-11T00:03:59.587Z,4.50
2019-02-11T00:06:25.235Z,3.93
2019-02-11T00:08:57.918Z,3.40
2019-02-11T00:11:30.306Z,3.53
2019-02-11T00:14:01.145Z,4.40
2019-02-11T00:16:33.585Z,3.37
2019-02-11T00:19:04.883Z,3.87
2019-02-11T00:21:34.906Z,4.13
2019-02-11T00:24:04.312Z,3.33
2019-02-11T00:26:33.028Z,3.77
2019-02-11T00:29:01.847Z,3.57
2019-02-11T00:31:30.681Z,3.00
2019-02-11T00:33:59.658Z,3.67
2019-02-11T00:36:28.461Z,4.90
2019-02-11T00:38:57.854Z,3.20
2019-02-11T00:41:27.180Z,3.00
2019-02-11T00:43:55.817Z,4.13
2019-02-11T00:46:29.619Z,3.23
2019-02-11T00:48:58.632Z,3.87
2019-02-11T00:51:27.482Z,3.13
2019-02-11T00:53:56.450Z,3.50
2019-02-11T00:56:24.987Z,3.03
2019-02-11T00:58:53.888Z,3.57
2019-02-11T01:01:26.125Z,3.47
2019-02-11T01:03:56.281Z,3.60
2019-02-11T01:06:25.506Z,3.00
2019-02-11T01:08:54.095Z,3.63
2019-02-11T01:11:39.442Z,3.67
2019-02-11T01:14:10.550Z,4.00
2019-02-11T01:17:26.778Z,3.57
2019-02-11T01:19:57.386Z,4.17
2019-02-11T01:22:26.498Z,3.47
2019-02-11T01:25:49.121Z,3.53
2019-02-11T01:31:42.876Z,3.03
2019-02-11T01:34:12.180Z,2.87
2019-02-11T01:36:41.537Z,3.40
2019-02-11T01:40:03.078Z,3.80
2019-02-11T01:57:08.919Z,2.73
2019-02-11T01:59:46.978Z,3.63
2019-02-11T02:02:28.151Z,3.20
2019-02-11T02:05:07.714Z,3.97
2019-02-11T02:10:41.717Z,3.23
2019-02-11T02:21:01.169Z,3.50
2019-02-11T02:34:35.954Z,3.67
2019-02-11T02:37:48.212Z,4.17
2019-02-11T02:43:26.381Z,3.70
2019-02-11T02:46:12.587Z,3.63
2019-02-11T02:49:13.345Z,3.30
2019-02-11T02:58:06.739Z,3.83
2019-02-11T03:00:53.340Z,3.93
2019-02-11T03:07:53.622Z,4.63
2019-02-11T03:10:21.650Z,4.60
2019-02-11T03:12:50.345Z,3.90
2019-02-11T03:15:20.229Z,3.20
2019-02-11T03:17:51.961Z,3.97
2019-02-11T03:20:20.632Z,3.80
2019-02-11T03:22:49.316Z,4.20
2019-02-11T03:25:17.938Z,4.27
2019-02-11T03:27:46.855Z,3.77
2019-02-11T03:30:15.470Z,3.87
2019-02-11T03:32:44.168Z,3.50
2019-02-11T03:35:25.621Z,4.10
2019-02-11T03:37:54.826Z,2.93
2019-02-11T03:40:23.574Z,3.60
2019-02-11T03:42:52.226Z,3.87
2019-02-11T03:45:23.953Z,3.60
2019-02-11T03:47:52.642Z,4.03
2019-02-11T03:50:24.503Z,4.63
2019-02-11T03:52:53.735Z,4.13
2019-02-11T03:55:23.001Z,3.83
2019-02-11T03:58:07.431Z,5.90
2019-02-11T04:00:36.322Z,3.33
2019-02-11T04:03:05.418Z,4.03
2019-02-11T04:05:34.271Z,4.30
2019-02-11T04:08:03.128Z,4.53
2019-02-11T04:10:33.403Z,3.77
2019-02-11T04:13:02.020Z,3.60
2019-02-11T04:15:30.669Z,4.07
2019-02-11T04:17:59.583Z,3.80
2019-02-11T04:20:29.034Z,3.90
2019-02-11T04:23:01.071Z,3.30
2019-02-11T04:25:31.639Z,4.03
2019-02-11T04:28:00.473Z,4.37
2019-02-11T04:30:29.008Z,3.73
2019-02-11T04:32:58.050Z,3.87
2019-02-11T04:35:26.705Z,3.97
2019-02-11T04:38:02.127Z,3.83
2019-02-11T04:40:36.943Z,3.23
2019-02-11T04:43:08.523Z,3.30
2019-02-11T04:45:37.443Z,3.27
2019-02-11T04:48:06.336Z,3.30
2019-02-11T04:50:35.088Z,3.73
2019-02-11T04:53:04.062Z,4.20
2019-02-11T04:55:32.976Z,3.43
2019-02-11T04:58:01.555Z,4.10
2019-02-11T05:00:30.305Z,4.03
2019-02-11T05:03:02.434Z,3.87
2019-02-11T05:05:31.471Z,3.27
2019-02-11T05:08:00.410Z,4.07
2019-02-11T05:10:29.340Z,3.53
2019-02-11T05:12:57.889Z,3.70
2019-02-11T05:15:26.596Z,4.00
2019-02-11T05:17:56.202Z,4.30
2019-02-11T05:20:25.030Z,3.70
2019-02-11T05:22:53.962Z,3.80
2019-02-11T05:25:22.982Z,3.53
2019-02-11T05:27:52.384Z,3.40
2019-02-11T05:30:21.479Z,3.90
2019-02-11T05:32:50.333Z,4.20
2019-02-11T05:35:19.163Z,3.50
2019-02-11T05:37:48.115Z,3.80
2019-02-11T05:40:16.906Z,3.60
2019-02-11T05:42:45.658Z,3.03
2019-02-11T05:45:19.017Z,3.50
2019-02-11T05:47:47.665Z,3.27
2019-02-11T05:50:16.606Z,3.07
2019-02-11T05:52:45.486Z,3.53
2019-02-11T05:55:16.019Z,4.20
2019-02-11T05:57:44.736Z,3.60
2019-02-11T06:00:14.785Z,5.60
2019-02-11T06:02:43.484Z,4.10
2019-02-11T06:05:12.577Z,3.67
2019-02-11T06:07:43.172Z,3.40
2019-02-11T06:10:13.129Z,3.40
2019-02-11T06:12:41.883Z,3.70
2019-02-11T06:15:10.939Z,3.27
2019-02-11T06:17:39.691Z,3.47
2019-02-11T06:20:08.683Z,3.97
2019-02-11T06:22:37.424Z,3.57
2019-02-11T06:25:06.605Z,4.23
2019-02-11T06:27:35.201Z,3.77
2019-02-11T06:30:04.188Z,4.40
2019-02-11T06:32:32.757Z,4.03
2019-02-11T06:35:01.384Z,4.50
2019-02-11T06:37:30.301Z,4.20
2019-02-11T06:39:58.933Z,4.00
2019-02-11T06:42:28.023Z,4.27
2019-02-11T06:44:57.117Z,4.53
2019-02-11T06:47:27.196Z,4.17
2019-02-11T06:50:04.073Z,3.77
2019-02-11T06:52:33.119Z,3.73
2019-02-11T06:55:01.787Z,3.90
2019-02-11T06:57:33.570Z,4.53
2019-02-11T07:00:04.871Z,5.03
2019-02-11T07:02:33.762Z,4.23
2019-02-11T07:05:02.997Z,4.33
2019-02-11T07:07:31.732Z,4.10
2019-02-11T07:10:03.898Z,4.63
2019-02-11T07:12:32.626Z,4.77
2019-02-11T07:15:01.371Z,4.77
2019-02-11T07:17:30.401Z,4.63
2019-02-11T07:19:59.355Z,4.50
2019-02-11T07:22:28.083Z,4.93
2019-02-11T07:24:56.799Z,5.63
2019-02-11T07:27:25.481Z,4.93
2019-02-11T07:29:54.352Z,5.00
2019-02-11T07:32:23.130Z,4.90
2019-02-11T07:34:51.898Z,4.90
2019-02-11T07:37:20.605Z,5.07
2019-02-11T07:39:49.496Z,4.90
2019-02-11T07:42:33.052Z,4.13
2019-02-11T07:45:20.515Z,4.83
2019-02-11T07:47:49.324Z,5.90
2019-02-11T07:50:18.295Z,6.47
2019-02-11T07:52:47.108Z,4.20
2019-02-11T07:55:15.839Z,4.90
2019-02-11T07:57:47.784Z,4.37
2019-02-11T08:00:16.527Z,4.80
2019-02-11T08:02:45.525Z,4.10
2019-02-11T08:05:14.456Z,4.30
2019-02-11T08:07:45.826Z,4.33
2019-02-11T08:10:14.640Z,3.77
2019-02-11T08:12:43.275Z,3.83
2019-02-11T08:15:15.113Z,4.83
2019-02-11T08:17:44.183Z,3.80
2019-02-11T08:20:17.627Z,4.70
2019-02-11T08:22:47.879Z,3.90
2019-02-11T08:25:24.032Z,3.80
2019-02-11T08:27:55.876Z,3.60
2019-02-11T08:30:25.080Z,3.97
2019-02-11T08:32:53.784Z,3.60
2019-02-11T08:35:29.512Z,3.80
2019-02-11T08:37:58.351Z,3.37
2019-02-11T08:40:26.918Z,3.40
2019-02-11T08:42:56.036Z,3.23
2019-02-11T08:45:28.122Z,4.23
2019-02-11T08:47:57.465Z,3.53
2019-02-11T08:50:26.506Z,3.20
2019-02-11T08:52:55.380Z,3.37
2019-02-11T08:55:24.196Z,3.33
2019-02-11T08:57:56.659Z,3.50
2019-02-11T09:00:26.114Z,3.40
2019-02-11T09:02:54.820Z,3.77
2019-02-11T09:05:23.981Z,3.53
2019-02-11T09:07:52.907Z,3.40
2019-02-11T09:10:35.689Z,3.70
2019-02-11T09:13:04.760Z,4.07
2019-02-11T09:15:34.468Z,3.30
2019-02-11T09:21:20.798Z,3.07
2019-02-11T09:23:48.685Z,3.20
2019-02-11T09:28:55.276Z,3.20
2019-02-11T09:31:24.129Z,3.00
2019-02-11T09:33:53.020Z,3.83
2019-02-11T09:36:22.728Z,2.73
2019-02-11T09:38:51.925Z,2.33
2019-02-11T09:41:20.915Z,2.80
2019-02-11T09:43:52.263Z,3.00
2019-02-11T09:46:21.854Z,3.17
2019-02-11T09:48:51.722Z,2.93
2019-02-11T09:51:21.860Z,2.77
2019-02-11T09:53:53.921Z,2.53
2019-02-11T09:56:25.018Z,2.83
2019-02-11T09:58:55.689Z,2.90
2019-02-11T10:01:24.857Z,2.67
2019-02-11T10:03:54.084Z,2.37
2019-02-11T10:06:22.729Z,2.30
2019-02-11T10:08:51.854Z,2.77
2019-02-11T10:11:22.271Z,4.33
2019-02-11T10:17:29.864Z,2.87
2019-02-11T10:21:05.399Z,4.07
2019-02-11T10:33:18.481Z,2.90
2019-02-11T10:39:29.021Z,2.90
2019-02-11T10:42:18.725Z,3.87
2019-02-11T10:45:43.147Z,3.30
2019-02-11T13:10:46.393Z,2.97
2019-02-11T13:16:30.984Z,3.00
2019-02-11T13:19:03.287Z,2.97
2019-02-11T13:21:32.066Z,2.77
2019-02-11T13:24:00.896Z,2.87
2019-02-11T13:26:36.860Z,3.13
2019-02-11T13:29:10.733Z,3.03
2019-02-11T13:31:40.460Z,2.90
2019-02-11T13:34:09.480Z,3.30
2019-02-11T13:36:43.630Z,3.80
2019-02-11T13:39:16.422Z,2.17
2019-02-11T13:41:45.198Z,3.23
2019-02-11T13:44:15.838Z,3.30
2019-02-11T13:46:44.999Z,3.33
2019-02-11T13:49:13.876Z,2.40
2019-02-11T13:51:43.038Z,3.00
2019-02-11T13:54:11.985Z,2.63
2019-02-11T13:56:42.482Z,3.30
2019-02-11T13:59:11.470Z,3.40
2019-02-11T14:01:42.354Z,3.07
2019-02-11T14:04:11.055Z,2.90
2019-02-11T14:06:40.168Z,2.80
2019-02-11T14:09:13.130Z,2.60
2019-02-11T14:11:42.058Z,2.87
2019-02-11T14:14:11.058Z,2.97
2019-02-11T14:16:42.842Z,3.00
2019-02-11T14:19:14.923Z,3.10
2019-02-11T14:21:52.220Z,3.73
2019-02-11T14:24:21.100Z,3.43
2019-02-11T14:26:50.038Z,3.43
2019-02-11T14:29:21.176Z,3.17
2019-02-11T14:32:01.519Z,2.73
2019-02-11T14:34:37.531Z,2.83
2019-02-11T14:37:10.988Z,2.63
2019-02-11T14:39:45.568Z,2.50
2019-02-11T14:42:15.139Z,3.00
2019-02-11T14:44:44.595Z,2.50
2019-02-11T14:47:13.440Z,2.80
2019-02-11T14:49:42.073Z,3.40
2019-02-11T14:52:11.277Z,2.60
2019-02-11T14:54:44.361Z,2.60
2019-02-11T15:00:15.265Z,3.47
2019-02-11T15:02:50.568Z,3.07
2019-02-11T15:05:24.569Z,2.43
2019-02-11T15:07:53.647Z,3.47
2019-02-11T15:10:51.224Z,2.77
2019-02-11T15:13:37.488Z,3.00
2019-02-11T15:16:10.192Z,2.77
2019-02-11T15:18:42.249Z,3.10
2019-02-11T15:21:11.329Z,3.10
2019-02-11T15:23:40.978Z,3.37
2019-02-11T15:26:10.216Z,2.70
2019-02-11T15:28:40.070Z,2.63
2019-02-11T15:31:11.486Z,2.63
2019-02-11T15:33:40.130Z,2.40
2019-02-11T15:36:09.454Z,2.90
2019-02-11T15:38:38.797Z,3.37
2019-02-11T15:41:08.524Z,3.53
2019-02-11T15:43:38.549Z,3.80
2019-02-11T15:46:08.127Z,2.30
2019-02-11T15:48:45.318Z,2.43
2019-02-11T15:51:20.388Z,2.63
2019-02-11T15:56:36.790Z,2.97
2019-02-11T15:59:14.694Z,3.03
2019-02-11T16:01:52.165Z,3.37
2019-02-11T16:04:21.866Z,2.53
2019-02-11T16:06:51.094Z,3.03
2019-02-11T16:09:20.118Z,2.73
2019-02-11T16:11:52.448Z,3.23
2019-02-11T16:14:22.555Z,3.20
2019-02-11T16:16:51.733Z,3.17
2019-02-11T16:19:25.617Z,3.27
2019-02-11T16:21:58.041Z,3.57
2019-02-11T16:25:06.130Z,3.07
2019-02-11T16:27:34.820Z,3.87
2019-02-11T16:30:06.318Z,2.90
2019-02-11T16:36:05.199Z,3.20
2019-02-11T16:38:36.963Z,3.77
2019-02-11T16:41:19.685Z,3.20
2019-02-11T16:43:57.303Z,3.00
2019-02-11T16:46:50.737Z,3.43
2019-02-11T16:49:20.736Z,5.00
2019-02-11T16:52:10.033Z,3.53
2019-02-11T16:54:42.655Z,3.07
2019-02-11T16:57:14.867Z,2.70
2019-02-11T16:59:48.671Z,3.00
2019-02-11T17:02:39.770Z,3.33
2019-02-11T17:05:18.601Z,3.40
2019-02-11T17:07:54.992Z,2.80
2019-02-11T17:10:25.229Z,3.07
2019-02-11T17:13:01.573Z,3.20
2019-02-11T17:15:30.883Z,3.23
2019-02-11T17:18:11.100Z,3.73
2019-02-11T17:27:53.460Z,3.23
2019-02-11T18:04:56.449Z,3.70
2019-02-11T18:38:26.203Z,4.70
2019-02-11T18:40:57.451Z,3.73
2019-02-11T18:43:26.197Z,3.90
2019-02-11T18:45:54.985Z,4.40
2019-02-11T18:48:23.703Z,4.80
2019-02-11T18:50:52.440Z,4.37
2019-02-11T18:53:23.682Z,4.23
2019-02-11T18:55:52.282Z,4.97
2019-02-11T18:58:41.653Z,4.97
2019-02-11T19:01:28.290Z,8.10
2019-02-11T19:06:45.917Z,6.13
2019-02-11T19:09:26.801Z,5.33
2019-02-11T19:12:06.645Z,6.00
2019-02-11T19:14:46.633Z,9.07
2019-02-11T19:17:23.142Z,8.20
2019-02-11T19:19:55.342Z,6.43
2019-02-11T19:22:26.801Z,5.10
2019-02-11T19:24:59.394Z,6.83
2019-02-11T19:33:15.844Z,7.70
2019-02-11T19:36:05.622Z,9.60
2019-02-11T19:38:57.214Z,7.73
2019-02-11T19:41:36.455Z,9.17
2019-02-11T19:47:34.629Z,9.33
2019-02-11T19:50:30.947Z,8.40
2019-02-11T20:05:45.577Z,9.93
2019-02-11T20:14:10.948Z,10.43
2019-02-11T20:17:18.189Z,7.37
2019-02-11T20:39:49.913Z,7.33
2019-02-11T20:46:51.786Z,6.63
2019-02-11T20:49:02.750Z,7.53
2019-02-11T20:52:39.602Z,7.60
